Time;durP1;ratioP1;P1;durP2;ratioP2;P2;SDS_P1;SDS_P2;PMS_P1;PMS_P2;Temp;Humidity;BMP_temperature;BMP_pressure;BME280_temperature;BME280_humidity;BME280_pressure;Samples;Min_cycle;Max_cycle;Signal;HPM_P1;HPM_P2
2021/10/13 00:00:47;;;;;;;12.38;8.30;;;4.40;99.90;;;;;;2096655;28;20029;-72
2021/10/13 00:01:48;;;;;;;12.40;7.88;;;4.40;99.90;;;;;;2104985;28;20019;-70
2021/10/13 00:02:49;;;;;;;13.32;8.25;;;4.30;99.90;;;;;;2105768;28;20020;-71
2021/10/13 00:03:50;;;;;;;11.60;7.88;;;4.40;99.90;;;;;;2105163;28;20024;-71
2021/10/13 00:04:50;;;;;;;11.38;8.13;;;4.30;99.90;;;;;;2105034;28;20028;-70
2021/10/13 00:05:51;;;;;;;10.88;7.80;;;4.30;99.90;;;;;;2105820;28;20020;-71
2021/10/13 00:06:51;;;;;;;13.23;8.48;;;4.30;99.90;;;;;;2105742;28;20020;-70
2021/10/13 00:07:52;;;;;;;12.32;7.95;;;4.30;99.90;;;;;;2105392;28;20020;-70
2021/10/13 00:08:53;;;;;;;8.93;7.20;;;4.30;99.90;;;;;;2105219;28;20434;-72
2021/10/13 00:09:54;;;;;;;10.07;7.45;;;4.30;99.90;;;;;;2105603;28;20481;-71
2021/10/13 00:10:54;;;;;;;11.50;7.60;;;4.30;99.90;;;;;;2105177;28;20039;-71
2021/10/13 00:11:55;;;;;;;10.07;7.50;;;4.30;99.90;;;;;;2096220;28;20081;-71
2021/10/13 00:12:56;;;;;;;10.18;7.25;;;4.30;99.90;;;;;;2097661;28;20020;-74
2021/10/13 00:13:56;;;;;;;11.98;7.45;;;4.30;99.90;;;;;;2097351;28;20157;-74
2021/10/13 00:14:57;;;;;;;12.50;7.78;;;4.30;99.90;;;;;;2104997;28;20069;-74
2021/10/13 00:15:58;;;;;;;12.98;7.93;;;4.20;99.90;;;;;;2096445;28;20127;-73
2021/10/13 00:17:06;;;;;;;13.77;8.38;;;4.30;99.90;;;;;;2097669;28;20082;-73
2021/10/13 00:18:06;;;;;;;9.93;7.78;;;4.30;99.90;;;;;;2106503;28;20028;-75
2021/10/13 00:19:07;;;;;;;12.88;7.97;;;4.30;99.90;;;;;;2104642;28;20036;-73
2021/10/13 00:20:09;;;;;;;14.00;8.50;;;4.30;99.90;;;;;;2105951;28;20495;-74
2021/10/13 00:21:09;;;;;;;12.13;8.20;;;4.20;99.90;;;;;;2105930;28;20117;-76
2021/10/13 00:22:10;;;;;;;11.80;8.48;;;4.30;99.90;;;;;;2105959;28;20026;-74
2021/10/13 00:23:11;;;;;;;11.52;8.15;;;4.20;99.90;;;;;;2106984;28;20056;-74
2021/10/13 00:24:12;;;;;;;13.00;8.13;;;4.30;99.90;;;;;;2106137;28;20016;-73
2021/10/13 00:25:12;;;;;;;13.80;8.07;;;4.30;99.90;;;;;;2096949;28;20028;-73
2021/10/13 00:26:13;;;;;;;14.63;8.25;;;4.30;99.90;;;;;;2105105;28;20518;-73
2021/10/13 00:27:13;;;;;;;13.95;8.55;;;4.30;99.90;;;;;;2105563;28;20070;-73
2021/10/13 00:28:14;;;;;;;11.38;8.20;;;4.30;99.90;;;;;;2105674;28;20475;-73
2021/10/13 00:29:15;;;;;;;12.32;8.38;;;4.30;99.90;;;;;;2105051;28;20502;-73
2021/10/13 00:30:15;;;;;;;14.82;8.68;;;4.30;99.90;;;;;;2096634;28;20039;-73
2021/10/13 00:31:16;;;;;;;13.23;8.57;;;4.30;99.90;;;;;;2096510;28;20041;-74
2021/10/13 00:32:16;;;;;;;14.18;8.85;;;4.30;99.90;;;;;;2105027;28;20024;-76
2021/10/13 00:33:17;;;;;;;15.50;8.75;;;4.40;99.90;;;;;;2105646;28;20594;-73
2021/10/13 00:34:17;;;;;;;13.13;8.43;;;4.30;99.90;;;;;;2105028;28;20120;-74
2021/10/13 00:35:18;;;;;;;11.57;8.43;;;4.30;99.90;;;;;;2105137;28;20028;-76
2021/10/13 00:36:19;;;;;;;12.80;8.13;;;4.30;99.90;;;;;;2105059;28;20123;-76
2021/10/13 00:37:19;;;;;;;14.93;8.07;;;4.30;99.90;;;;;;2096207;28;20029;-75
2021/10/13 00:38:20;;;;;;;12.43;8.32;;;4.40;99.90;;;;;;2104893;28;20031;-76
2021/10/13 00:39:20;;;;;;;11.75;8.35;;;4.40;99.90;;;;;;2104871;28;20511;-76
2021/10/13 00:40:21;;;;;;;12.80;8.25;;;4.30;99.90;;;;;;2104964;28;20454;-75
2021/10/13 00:41:22;;;;;;;14.13;8.50;;;4.40;99.90;;;;;;2096584;28;20307;-76
2021/10/13 00:42:22;;;;;;;13.63;8.70;;;4.40;99.90;;;;;;2105075;28;20458;-75
2021/10/13 00:43:23;;;;;;;12.68;7.90;;;4.40;99.90;;;;;;2105728;28;20063;-75
2021/10/13 00:44:23;;;;;;;10.25;7.35;;;4.40;99.90;;;;;;2104685;28;20046;-76
2021/10/13 00:45:24;;;;;;;11.07;7.32;;;4.40;99.90;;;;;;2104761;28;20115;-75
2021/10/13 00:46:25;;;;;;;10.88;7.55;;;4.40;99.90;;;;;;2105802;28;20028;-76
2021/10/13 00:47:25;;;;;;;10.13;7.38;;;4.40;99.90;;;;;;2106035;28;20057;-76
2021/10/13 00:48:26;;;;;;;11.68;7.65;;;4.30;99.90;;;;;;2105352;28;20077;-75
2021/10/13 00:49:27;;;;;;;8.95;6.70;;;4.30;99.90;;;;;;2095990;28;20032;-75
2021/10/13 00:50:28;;;;;;;9.73;6.80;;;4.30;99.90;;;;;;2105028;28;20510;-75
2021/10/13 00:51:30;;;;;;;11.27;7.63;;;4.30;99.90;;;;;;2096313;28;20032;-75
2021/10/13 00:52:31;;;;;;;11.73;7.20;;;4.30;99.90;;;;;;2096945;28;20033;-74
2021/10/13 00:53:33;;;;;;;12.65;7.57;;;4.30;99.90;;;;;;2105565;28;20059;-77
2021/10/13 00:54:34;;;;;;;10.40;7.18;;;4.20;99.90;;;;;;2107410;28;20028;-74
2021/10/13 00:55:34;;;;;;;13.27;7.88;;;4.20;99.90;;;;;;2098011;28;20422;-74
2021/10/13 00:56:35;;;;;;;9.88;6.90;;;4.20;99.90;;;;;;2107196;28;20399;-75
2021/10/13 00:57:36;;;;;;;13.02;7.95;;;4.20;99.90;;;;;;2097763;28;20024;-75
2021/10/13 00:58:37;;;;;;;10.20;7.25;;;4.20;99.90;;;;;;2105825;28;20349;-75
2021/10/13 00:59:37;;;;;;;10.65;7.55;;;4.20;99.90;;;;;;2106811;28;20140;-74
2021/10/13 01:00:43;;;;;;;12.65;7.55;;;4.20;99.90;;;;;;2106729;28;20019;-74
2021/10/13 01:01:51;;;;;;;12.25;7.50;;;4.20;99.90;;;;;;2105744;28;20099;-74
2021/10/13 01:02:58;;;;;;;10.75;7.47;;;4.10;99.90;;;;;;2105939;28;20028;-74
2021/10/13 01:04:40;;;;;;;10.55;7.35;;;4.10;99.90;;;;;;2106947;28;20020;-74
2021/10/13 01:06:06;;;;;;;15.63;8.40;;;4.10;99.90;;;;;;2105789;28;20024;-74
2021/10/13 01:07:42;;;;;;;14.05;7.75;;;4.10;99.90;;;;;;2106712;28;20424;-72
2021/10/13 01:09:12;;;;;;;12.32;8.38;;;4.10;99.90;;;;;;2104880;28;20452;-72
2021/10/13 01:10:31;;;;;;;13.63;8.07;;;4.10;99.90;;;;;;2104883;28;20482;-72
2021/10/13 01:12:05;;;;;;;13.27;8.32;;;4.10;99.90;;;;;;2104712;28;20139;-72
2021/10/13 01:13:42;;;;;;;12.05;7.82;;;4.10;99.90;;;;;;2104865;28;20028;-72
2021/10/13 01:14:54;;;;;;;12.75;8.07;;;4.10;99.90;;;;;;2105347;28;20032;-72
2021/10/13 01:16:17;;;;;;;12.13;8.30;;;4.10;99.90;;;;;;2105355;28;20551;-71
2021/10/13 01:17:40;;;;;;;11.65;7.40;;;4.10;99.90;;;;;;2105470;28;20067;-72
2021/10/13 01:18:50;;;;;;;11.95;7.35;;;4.10;99.90;;;;;;2104347;28;20071;-72
2021/10/13 01:20:01;;;;;;;13.63;8.02;;;4.10;99.90;;;;;;2104683;28;20061;-71
2021/10/13 01:21:39;;;;;;;10.65;7.63;;;4.00;99.90;;;;;;2104552;28;20028;-72
2021/10/13 01:23:07;;;;;;;10.52;7.55;;;4.00;99.90;;;;;;2104986;28;20076;-72
2021/10/13 01:24:34;;;;;;;11.45;7.28;;;4.00;99.90;;;;;;2105114;28;20105;-72
2021/10/13 01:26:11;;;;;;;11.50;7.72;;;4.00;99.90;;;;;;2105319;28;20034;-71
2021/10/13 01:27:30;;;;;;;10.27;7.63;;;4.00;99.90;;;;;;2104554;28;20032;-72
2021/10/13 01:28:33;;;;;;;15.07;8.15;;;4.00;99.90;;;;;;2098647;28;20029;-72
2021/10/13 01:29:37;;;;;;;12.90;7.90;;;4.00;99.90;;;;;;2104712;28;20356;-72
2021/10/13 01:30:56;;;;;;;12.15;8.18;;;4.00;99.90;;;;;;2104651;28;20028;-71
2021/10/13 01:32:11;;;;;;;11.05;7.20;;;4.00;99.90;;;;;;2098374;28;20035;-71
2021/10/13 01:33:24;;;;;;;12.52;7.50;;;3.90;99.90;;;;;;2104768;28;20032;-71
2021/10/13 01:34:27;;;;;;;11.73;7.50;;;3.90;99.90;;;;;;2104632;28;20028;-72
2021/10/13 01:35:30;;;;;;;12.30;7.72;;;3.90;99.90;;;;;;2104454;28;20040;-72
2021/10/13 01:36:40;;;;;;;14.02;7.68;;;3.90;99.90;;;;;;2105255;28;20028;-72
2021/10/13 01:37:50;;;;;;;11.02;7.35;;;3.90;99.90;;;;;;2105284;28;20031;-72
2021/10/13 01:38:53;;;;;;;10.63;7.40;;;3.90;99.90;;;;;;2104018;28;20036;-72
2021/10/13 01:39:57;;;;;;;11.13;7.40;;;3.90;99.90;;;;;;2104626;28;20036;-71
2021/10/13 01:41:02;;;;;;;10.75;7.40;;;3.90;99.90;;;;;;2104837;28;20489;-72
2021/10/13 01:42:05;;;;;;;12.38;7.65;;;3.90;99.90;;;;;;2104285;28;20099;-72
2021/10/13 01:43:06;;;;;;;12.93;7.78;;;3.90;99.90;;;;;;2104660;28;20020;-71
2021/10/13 01:44:12;;;;;;;13.68;8.10;;;3.90;99.90;;;;;;2105263;28;20020;-71
2021/10/13 01:45:16;;;;;;;14.82;8.55;;;3.90;99.90;;;;;;2105238;28;20028;-72
2021/10/13 01:46:20;;;;;;;11.55;8.10;;;3.90;99.90;;;;;;2105354;28;20024;-72
2021/10/13 01:47:22;;;;;;;12.93;8.00;;;3.90;99.90;;;;;;2105263;28;20042;-72
2021/10/13 01:48:23;;;;;;;13.15;8.18;;;3.90;99.90;;;;;;2104617;28;20477;-72
2021/10/13 01:49:24;;;;;;;12.27;8.40;;;4.00;99.90;;;;;;2104061;28;20101;-71
2021/10/13 01:50:26;;;;;;;12.15;8.18;;;4.00;99.90;;;;;;2105147;28;20436;-71
2021/10/13 01:51:28;;;;;;;16.42;9.00;;;4.00;99.90;;;;;;2104977;28;20027;-72
2021/10/13 01:52:30;;;;;;;13.52;8.50;;;4.00;99.90;;;;;;2105228;28;20052;-72
2021/10/13 01:53:33;;;;;;;11.48;8.05;;;4.10;99.90;;;;;;2104922;28;20024;-71
2021/10/13 01:54:37;;;;;;;15.88;9.20;;;4.10;99.90;;;;;;2104443;28;20035;-71
2021/10/13 01:55:39;;;;;;;12.73;8.55;;;4.10;99.90;;;;;;2096865;28;20491;-72
2021/10/13 01:56:41;;;;;;;11.23;8.13;;;4.10;99.90;;;;;;2106276;28;20032;-72
2021/10/13 01:57:44;;;;;;;16.70;9.30;;;4.10;99.90;;;;;;2107107;28;20578;-72
2021/10/13 01:58:47;;;;;;;13.73;8.93;;;4.10;99.90;;;;;;2106553;28;20028;-72
2021/10/13 01:59:50;;;;;;;14.73;9.20;;;4.10;99.90;;;;;;2106188;28;20099;-72
2021/10/13 02:00:52;;;;;;;18.25;8.98;;;4.20;99.90;;;;;;2106404;28;20030;-72
2021/10/13 02:01:53;;;;;;;16.63;9.13;;;4.20;99.90;;;;;;2106422;28;20631;-72
2021/10/13 02:02:55;;;;;;;15.82;9.50;;;4.20;99.90;;;;;;2106260;28;20089;-71
2021/10/13 02:03:59;;;;;;;17.40;9.55;;;4.20;99.90;;;;;;2106538;28;20035;-71
2021/10/13 02:05:02;;;;;;;14.35;9.35;;;4.20;99.90;;;;;;2106409;28;20031;-72
2021/10/13 02:06:05;;;;;;;12.30;8.77;;;4.20;99.90;;;;;;2098602;28;20013;-71
2021/10/13 02:07:07;;;;;;;14.18;9.05;;;4.30;99.90;;;;;;2106580;28;20077;-71
2021/10/13 02:08:08;;;;;;;15.07;9.13;;;4.30;99.90;;;;;;2107473;28;20024;-71
2021/10/13 02:09:09;;;;;;;15.10;9.38;;;4.30;99.90;;;;;;2106638;28;20052;-72
2021/10/13 02:10:11;;;;;;;16.13;9.40;;;4.30;99.90;;;;;;2107279;28;20028;-71
2021/10/13 02:11:13;;;;;;;17.13;9.48;;;4.30;99.90;;;;;;2107087;28;20097;-71
2021/10/13 02:12:16;;;;;;;16.13;9.27;;;4.30;99.90;;;;;;2107748;28;20032;-72
2021/10/13 02:13:20;;;;;;;14.05;8.80;;;4.40;99.90;;;;;;2108133;28;20044;-71
2021/10/13 02:14:21;;;;;;;16.85;8.90;;;4.40;99.90;;;;;;2108534;28;20035;-72
2021/10/13 02:15:25;;;;;;;15.02;9.20;;;4.40;99.90;;;;;;2107900;28;20020;-71
2021/10/13 02:16:27;;;;;;;15.93;9.32;;;4.40;99.90;;;;;;2106197;28;20043;-72
2021/10/13 02:17:27;;;;;;;18.38;9.38;;;4.50;99.90;;;;;;2098079;28;20500;-71
2021/10/13 02:18:30;;;;;;;17.15;9.63;;;4.50;99.90;;;;;;2106084;28;20032;-72
2021/10/13 02:19:31;;;;;;;16.08;9.57;;;4.50;99.90;;;;;;2105661;28;20028;-71
2021/10/13 02:20:34;;;;;;;24.52;10.80;;;4.60;99.90;;;;;;2106271;28;20071;-72
2021/10/13 02:21:37;;;;;;;17.67;9.55;;;4.60;99.90;;;;;;2106657;28;20483;-72
2021/10/13 02:22:40;;;;;;;20.60;10.35;;;4.60;99.90;;;;;;2106848;28;20034;-72
2021/10/13 02:23:41;;;;;;;19.35;10.43;;;4.60;99.90;;;;;;2107409;28;20407;-71
2021/10/13 02:24:46;;;;;;;19.40;10.80;;;4.60;99.90;;;;;;2107498;28;20035;-71
2021/10/13 02:25:49;;;;;;;21.00;10.20;;;4.60;99.90;;;;;;2107175;28;20225;-71
2021/10/13 02:26:56;;;;;;;18.80;9.70;;;4.60;99.90;;;;;;2107297;28;20028;-71
2021/10/13 02:28:03;;;;;;;17.55;9.70;;;4.70;99.90;;;;;;2098338;28;20035;-71
2021/10/13 02:29:11;;;;;;;16.48;9.07;;;4.60;99.90;;;;;;2105669;28;20035;-71
2021/10/13 02:30:12;;;;;;;15.40;8.98;;;4.60;99.90;;;;;;2106143;28;20048;-71
2021/10/13 02:31:13;;;;;;;17.88;9.90;;;4.60;99.90;;;;;;2106269;28;20036;-72
2021/10/13 02:32:13;;;;;;;19.92;11.07;;;4.70;99.90;;;;;;2106780;28;20036;-72
2021/10/13 02:33:14;;;;;;;22.60;10.85;;;4.70;99.90;;;;;;2106855;28;20101;-72
2021/10/13 02:34:15;;;;;;;22.80;11.57;;;4.70;99.90;;;;;;2106899;28;20440;-71
2021/10/13 02:35:16;;;;;;;19.50;10.82;;;4.70;99.90;;;;;;2106920;28;20479;-71
2021/10/13 02:36:17;;;;;;;20.00;10.45;;;4.70;99.90;;;;;;2107175;28;20145;-71
2021/10/13 02:37:17;;;;;;;22.02;11.23;;;4.70;99.90;;;;;;2106205;28;20126;-71
2021/10/13 02:38:18;;;;;;;21.55;11.05;;;4.70;99.90;;;;;;2106278;28;20048;-72
2021/10/13 02:39:19;;;;;;;19.10;11.10;;;4.70;99.90;;;;;;2106163;28;20387;-72
2021/10/13 02:40:19;;;;;;;22.83;12.43;;;4.70;99.90;;;;;;2105929;28;20029;-71
2021/10/13 02:41:20;;;;;;;29.20;13.95;;;4.70;99.90;;;;;;2105688;28;20073;-71
2021/10/13 02:42:21;;;;;;;31.67;14.20;;;4.70;99.90;;;;;;2106584;28;20034;-70
2021/10/13 02:43:21;;;;;;;31.15;13.98;;;4.70;99.90;;;;;;2097788;28;20032;-71
2021/10/13 02:44:22;;;;;;;33.00;15.02;;;4.70;99.90;;;;;;2097740;28;20140;-71
2021/10/13 02:45:23;;;;;;;29.63;14.38;;;4.70;99.90;;;;;;2106585;28;20052;-71
2021/10/13 02:46:45;;;;;;;23.85;13.68;;;4.70;99.90;;;;;;2106804;28;20031;-71
2021/10/13 02:47:55;;;;;;;33.08;14.38;;;4.70;99.90;;;;;;2106702;28;20440;-71
2021/10/13 02:49:22;;;;;;;35.80;15.45;;;4.70;99.90;;;;;;2106070;28;20769;-70
2021/10/13 02:50:37;;;;;;;29.08;15.07;;;4.70;99.90;;;;;;2106584;28;20079;-71
2021/10/13 02:51:50;;;;;;;30.00;14.68;;;4.70;99.90;;;;;;2106213;28;20042;-70
2021/10/13 02:53:05;;;;;;;27.35;14.55;;;4.70;99.90;;;;;;2106753;28;20128;-70
2021/10/13 02:54:32;;;;;;;29.23;14.20;;;4.70;99.90;;;;;;2106630;28;20749;-70
2021/10/13 02:55:47;;;;;;;30.15;15.15;;;4.70;99.90;;;;;;2106667;28;20024;-70
2021/10/13 02:56:51;;;;;;;35.50;16.67;;;4.60;99.90;;;;;;2106221;28;20051;-70
2021/10/13 02:57:53;;;;;;;38.33;16.75;;;4.60;99.90;;;;;;2106198;28;20071;-71
2021/10/13 02:59:02;;;;;;;27.15;15.88;;;4.60;99.90;;;;;;2106149;28;20032;-72
2021/10/13 03:00:06;;;;;;;31.73;16.55;;;4.60;99.90;;;;;;2097557;28;20028;-72
2021/10/13 03:01:11;;;;;;;27.67;15.35;;;4.60;99.90;;;;;;2097884;28;20547;-72
2021/10/13 03:02:17;;;;;;;27.30;15.15;;;4.60;99.90;;;;;;2106754;28;20167;-72
2021/10/13 03:03:31;;;;;;;37.35;17.58;;;4.60;99.90;;;;;;2106568;28;20864;-72
2021/10/13 03:04:37;;;;;;;27.90;16.55;;;4.60;99.90;;;;;;2106804;28;20016;-72
2021/10/13 03:05:39;;;;;;;45.63;19.25;;;4.50;99.90;;;;;;2106847;28;20430;-70
2021/10/13 03:06:48;;;;;;;34.15;18.10;;;4.50;99.90;;;;;;2106582;28;20016;-70
2021/10/13 03:07:51;;;;;;;32.30;17.33;;;4.50;99.90;;;;;;2106051;28;20111;-72
2021/10/13 03:08:53;;;;;;;29.63;16.70;;;4.50;99.90;;;;;;2105993;28;20036;-72
2021/10/13 03:10:00;;;;;;;35.58;18.15;;;4.50;99.90;;;;;;2105810;28;20040;-73
2021/10/13 03:11:02;;;;;;;37.92;19.02;;;4.50;99.90;;;;;;2098676;28;20542;-73
2021/10/13 03:12:04;;;;;;;30.42;17.85;;;4.50;99.90;;;;;;2105824;28;20040;-70
2021/10/13 03:13:07;;;;;;;31.45;18.02;;;4.50;99.90;;;;;;2106139;28;20596;-72
2021/10/13 03:14:07;;;;;;;35.60;18.98;;;4.50;99.90;;;;;;2105787;28;20501;-72
2021/10/13 03:15:11;;;;;;;32.03;19.05;;;4.50;99.90;;;;;;2105820;28;20114;-72
2021/10/13 03:16:12;;;;;;;32.30;18.08;;;4.50;99.90;;;;;;2106223;28;20062;-72
2021/10/13 03:17:14;;;;;;;33.30;18.65;;;4.50;99.90;;;;;;2106556;28;20051;-73
2021/10/13 03:18:16;;;;;;;37.25;19.25;;;4.60;99.90;;;;;;2106502;28;20028;-71
2021/10/13 03:19:20;;;;;;;42.42;21.45;;;4.60;99.90;;;;;;2105732;28;20488;-72
2021/10/13 03:20:22;;;;;;;40.75;20.83;;;4.60;99.90;;;;;;2106212;28;20038;-72
2021/10/13 03:21:27;;;;;;;32.78;18.40;;;4.60;99.90;;;;;;2106105;28;20024;-73
2021/10/13 03:22:28;;;;;;;47.28;21.27;;;4.60;99.90;;;;;;2105825;28;20141;-72
2021/10/13 03:23:29;;;;;;;34.13;19.95;;;4.60;99.90;;;;;;2097624;28;20044;-72
2021/10/13 03:24:30;;;;;;;36.83;20.30;;;4.70;99.90;;;;;;2105770;28;20467;-74
2021/10/13 03:25:31;;;;;;;54.38;22.88;;;4.60;99.90;;;;;;2106441;28;20063;-72
2021/10/13 03:26:32;;;;;;;42.17;22.35;;;4.60;99.90;;;;;;2106611;28;20032;-72
2021/10/13 03:27:33;;;;;;;46.22;22.80;;;4.60;99.90;;;;;;2106577;28;20020;-73
2021/10/13 03:28:34;;;;;;;35.65;20.63;;;4.60;99.90;;;;;;2105784;28;20031;-72
2021/10/13 03:29:42;;;;;;;45.53;23.30;;;4.60;99.90;;;;;;2105880;28;20426;-72
2021/10/13 03:30:46;;;;;;;36.88;20.60;;;4.60;99.90;;;;;;2105928;28;20411;-72
2021/10/13 03:31:47;;;;;;;54.78;24.67;;;4.60;99.90;;;;;;2105351;28;20024;-72
2021/10/13 03:32:48;;;;;;;46.70;23.13;;;4.60;99.90;;;;;;2097468;28;20024;-73
2021/10/13 03:33:49;;;;;;;54.85;24.40;;;4.60;99.90;;;;;;2105724;28;20023;-71
2021/10/13 03:34:50;;;;;;;40.65;22.20;;;4.60;99.90;;;;;;2106100;28;20052;-73
2021/10/13 03:35:51;;;;;;;43.95;22.73;;;4.60;99.90;;;;;;2106401;28;20058;-71
2021/10/13 03:36:51;;;;;;;36.40;20.75;;;4.60;99.90;;;;;;2106258;28;20099;-72
2021/10/13 03:37:53;;;;;;;36.17;20.30;;;4.60;99.90;;;;;;2106497;28;20024;-72
2021/10/13 03:38:53;;;;;;;43.80;21.95;;;4.60;99.90;;;;;;2105594;28;20046;-74
2021/10/13 03:39:56;;;;;;;48.30;22.77;;;4.70;99.90;;;;;;2106309;28;20032;-72
2021/10/13 03:40:57;;;;;;;33.42;21.10;;;4.70;99.90;;;;;;2106324;28;20024;-72
2021/10/13 03:42:01;;;;;;;52.65;23.60;;;4.70;99.90;;;;;;2105875;28;20035;-72
2021/10/13 03:43:03;;;;;;;39.15;21.73;;;4.70;99.90;;;;;;2105916;28;20029;-72
2021/10/13 03:44:04;;;;;;;46.53;23.45;;;4.80;99.90;;;;;;2105495;28;20043;-73
2021/10/13 03:45:05;;;;;;;69.25;26.13;;;4.80;99.90;;;;;;2106380;28;20088;-72
2021/10/13 03:46:05;;;;;;;56.72;25.52;;;4.80;99.90;;;;;;2106281;28;20101;-72
2021/10/13 03:47:06;;;;;;;72.82;27.15;;;4.80;99.90;;;;;;2106333;28;20383;-72
2021/10/13 03:48:07;;;;;;;40.53;22.83;;;4.80;99.90;;;;;;2105518;28;20070;-72
2021/10/13 03:49:07;;;;;;;47.58;23.63;;;4.80;99.90;;;;;;2104814;28;20025;-73
2021/10/13 03:50:10;;;;;;;57.90;25.65;;;4.80;99.90;;;;;;2105898;28;20674;-72
2021/10/13 03:51:10;;;;;;;56.95;25.73;;;4.80;99.90;;;;;;2105701;28;20038;-72
2021/10/13 03:52:11;;;;;;;56.42;26.88;;;4.80;99.90;;;;;;2105692;28;20510;-72
2021/10/13 03:53:11;;;;;;;46.83;24.95;;;4.80;99.90;;;;;;2105837;28;20036;-72
2021/10/13 03:54:12;;;;;;;68.38;27.50;;;4.80;99.90;;;;;;2105848;28;20490;-72
2021/10/13 03:55:15;;;;;;;56.03;26.17;;;4.80;99.90;;;;;;2106020;28;20036;-72
2021/10/13 03:56:16;;;;;;;37.92;22.85;;;4.80;99.90;;;;;;2105770;28;20039;-73
2021/10/13 03:57:17;;;;;;;38.05;20.92;;;4.90;99.90;;;;;;2105169;28;20049;-72
2021/10/13 03:58:17;;;;;;;40.80;22.27;;;4.90;99.90;;;;;;2105189;28;20040;-72
2021/10/13 03:59:18;;;;;;;39.30;21.80;;;4.90;99.90;;;;;;2104673;28;20028;-72
2021/10/13 04:00:21;;;;;;;47.13;22.45;;;4.90;99.90;;;;;;2105105;28;20475;-72
2021/10/13 04:01:22;;;;;;;39.17;22.00;;;4.90;99.90;;;;;;2105625;28;20162;-73
2021/10/13 04:02:22;;;;;;;49.85;23.63;;;4.90;99.90;;;;;;2105613;28;20016;-72
2021/10/13 04:03:23;;;;;;;50.10;23.75;;;4.90;99.90;;;;;;2105014;28;20163;-73
2021/10/13 04:04:23;;;;;;;40.75;22.38;;;4.90;99.90;;;;;;2105272;28;20071;-72
2021/10/13 04:05:24;;;;;;;40.55;21.23;;;4.90;99.90;;;;;;2105675;28;20036;-72
2021/10/13 04:06:25;;;;;;;62.63;25.23;;;4.90;99.90;;;;;;2105891;28;20153;-72
2021/10/13 04:07:26;;;;;;;40.72;21.98;;;4.90;99.90;;;;;;2105875;28;20023;-72
2021/10/13 04:08:27;;;;;;;40.58;20.98;;;4.90;99.90;;;;;;2105998;28;20028;-72
2021/10/13 04:09:27;;;;;;;33.58;19.88;;;4.90;99.90;;;;;;2105331;28;20079;-72
2021/10/13 04:10:28;;;;;;;35.03;20.45;;;5.00;99.90;;;;;;2105815;28;20109;-72
2021/10/13 04:11:29;;;;;;;50.35;24.40;;;4.90;99.90;;;;;;2104669;28;20111;-72
2021/10/13 04:12:30;;;;;;;59.03;25.27;;;4.90;99.90;;;;;;2104987;28;20038;-72
2021/10/13 04:13:30;;;;;;;46.65;23.45;;;4.90;99.90;;;;;;2105869;28;20509;-72
2021/10/13 04:14:31;;;;;;;51.33;23.85;;;4.90;99.90;;;;;;2105703;28;20040;-73
2021/10/13 04:15:32;;;;;;;42.03;23.27;;;4.90;99.90;;;;;;2105854;28;20032;-72
2021/10/13 04:16:32;;;;;;;45.08;22.77;;;4.90;99.90;;;;;;2105764;28;20028;-72
2021/10/13 04:17:33;;;;;;;40.65;22.08;;;5.00;99.90;;;;;;2105393;28;20038;-72
2021/10/13 04:18:34;;;;;;;38.55;21.35;;;5.00;99.90;;;;;;2104998;28;20032;-72
2021/10/13 04:19:35;;;;;;;45.92;23.25;;;5.00;99.90;;;;;;2104389;28;20055;-72
2021/10/13 04:20:36;;;;;;;55.83;24.63;;;5.00;99.90;;;;;;2105671;28;20102;-72
2021/10/13 04:21:36;;;;;;;54.90;24.30;;;5.00;99.90;;;;;;2105295;28;20028;-72
2021/10/13 04:22:37;;;;;;;47.90;23.77;;;5.00;99.90;;;;;;2105716;28;20028;-72
2021/10/13 04:23:38;;;;;;;49.85;24.00;;;5.00;99.90;;;;;;2105563;28;20676;-72
2021/10/13 04:24:38;;;;;;;51.58;24.35;;;5.10;99.90;;;;;;2105492;28;20032;-72
2021/10/13 04:25:39;;;;;;;64.25;25.92;;;5.10;99.90;;;;;;2104948;28;20024;-72
2021/10/13 04:26:40;;;;;;;47.88;23.17;;;5.10;99.90;;;;;;2105086;28;20086;-72
2021/10/13 04:27:40;;;;;;;45.58;23.38;;;5.10;99.90;;;;;;2105129;28;20386;-72
2021/10/13 04:28:41;;;;;;;37.45;21.63;;;5.10;99.90;;;;;;2105092;28;20020;-72
2021/10/13 04:29:41;;;;;;;48.33;23.33;;;5.10;99.90;;;;;;2105079;28;20126;-72
2021/10/13 04:30:42;;;;;;;48.95;23.20;;;5.20;99.90;;;;;;2104999;28;20013;-72
2021/10/13 04:31:42;;;;;;;57.92;24.98;;;5.20;99.90;;;;;;2105025;28;20028;-72
2021/10/13 04:32:44;;;;;;;60.95;24.88;;;5.20;99.90;;;;;;2105427;28;20065;-72
2021/10/13 04:33:45;;;;;;;40.58;22.23;;;5.20;99.90;;;;;;2105595;28;20020;-72
2021/10/13 04:34:45;;;;;;;42.72;23.20;;;5.20;99.90;;;;;;2105508;28;20020;-72
2021/10/13 04:35:46;;;;;;;53.05;23.30;;;5.20;99.90;;;;;;2105685;28;20467;-72
2021/10/13 04:36:46;;;;;;;53.28;23.55;;;5.20;99.90;;;;;;2105793;28;20035;-72
2021/10/13 04:37:47;;;;;;;36.67;21.05;;;5.20;99.90;;;;;;2105732;28;20073;-72
2021/10/13 04:38:48;;;;;;;58.63;23.33;;;5.20;99.90;;;;;;2104942;28;20034;-72
2021/10/13 04:39:48;;;;;;;49.90;23.08;;;5.20;99.90;;;;;;2105286;28;20052;-72
2021/10/13 04:40:49;;;;;;;63.90;24.70;;;5.20;99.90;;;;;;2105517;28;20024;-72
2021/10/13 04:41:50;;;;;;;36.88;21.10;;;5.20;99.90;;;;;;2105334;28;20157;-72
2021/10/13 04:42:50;;;;;;;41.83;22.63;;;5.20;99.90;;;;;;2105439;28;20028;-72
2021/10/13 04:43:51;;;;;;;65.80;25.48;;;5.20;99.90;;;;;;2104842;28;20028;-72
2021/10/13 04:44:52;;;;;;;39.95;22.27;;;5.20;99.90;;;;;;2096239;28;20024;-72
2021/10/13 04:45:52;;;;;;;38.40;20.38;;;5.20;99.90;;;;;;2104656;28;20030;-73
2021/10/13 04:46:53;;;;;;;44.25;23.08;;;5.20;99.90;;;;;;2105350;28;20161;-72
2021/10/13 04:47:54;;;;;;;55.15;24.45;;;5.20;99.90;;;;;;2104797;28;20024;-72
2021/10/13 04:48:54;;;;;;;62.22;26.02;;;5.20;99.90;;;;;;2104465;28;20035;-73
2021/10/13 04:49:55;;;;;;;60.67;26.20;;;5.20;99.90;;;;;;2105284;28;20055;-73
2021/10/13 04:50:55;;;;;;;53.72;24.67;;;5.20;99.90;;;;;;2104808;28;20107;-73
2021/10/13 04:51:56;;;;;;;47.00;22.95;;;5.20;99.90;;;;;;2104620;28;20032;-72
2021/10/13 04:52:57;;;;;;;47.10;22.38;;;5.20;99.90;;;;;;2105440;28;20036;-72
2021/10/13 04:53:57;;;;;;;58.38;25.05;;;5.20;99.90;;;;;;2105171;28;20062;-72
2021/10/13 04:54:58;;;;;;;58.22;24.77;;;5.20;99.90;;;;;;2096453;28;20145;-72
2021/10/13 04:55:58;;;;;;;57.35;24.38;;;5.20;99.90;;;;;;2095071;28;20033;-73
2021/10/13 04:56:59;;;;;;;70.85;26.25;;;5.20;99.90;;;;;;2099717;28;20028;-72
2021/10/13 04:57:59;;;;;;;42.35;23.58;;;5.20;99.90;;;;;;2101108;28;20037;-73
2021/10/13 04:59:00;;;;;;;62.35;26.60;;;5.20;99.90;;;;;;2103218;28;20027;-75
2021/10/13 05:00:01;;;;;;;47.88;24.23;;;5.20;99.90;;;;;;2105107;28;20025;-73
2021/10/13 05:01:01;;;;;;;39.92;22.42;;;5.20;99.90;;;;;;2105317;28;20024;-73
2021/10/13 05:02:02;;;;;;;49.70;23.48;;;5.20;99.90;;;;;;2104261;28;20113;-73
2021/10/13 05:03:03;;;;;;;54.15;24.48;;;5.20;99.90;;;;;;2105014;28;20063;-74
2021/10/13 05:04:03;;;;;;;66.18;25.10;;;5.30;99.90;;;;;;2105394;28;20030;-73
2021/10/13 05:05:05;;;;;;;68.47;25.80;;;5.20;99.90;;;;;;2105385;28;20024;-71
2021/10/13 05:06:05;;;;;;;66.65;26.20;;;5.20;99.90;;;;;;2105709;28;20024;-72
2021/10/13 05:07:06;;;;;;;50.58;24.17;;;5.20;99.90;;;;;;2105494;28;20089;-71
2021/10/13 05:08:07;;;;;;;35.05;21.77;;;5.20;99.90;;;;;;2104566;28;20395;-71
2021/10/13 05:09:07;;;;;;;41.72;21.92;;;5.20;99.90;;;;;;2104179;28;20043;-72
2021/10/13 05:10:08;;;;;;;33.97;20.25;;;5.20;99.90;;;;;;2105303;28;20046;-72
2021/10/13 05:11:09;;;;;;;42.78;22.63;;;5.30;99.90;;;;;;2104992;28;20415;-72
2021/10/13 05:12:09;;;;;;;35.47;21.42;;;5.30;99.90;;;;;;2104267;28;20040;-72
2021/10/13 05:13:10;;;;;;;53.70;24.75;;;5.30;99.90;;;;;;2105613;28;20028;-70
2021/10/13 05:14:11;;;;;;;36.53;21.95;;;5.30;99.90;;;;;;2105238;28;20032;-70
2021/10/13 05:15:11;;;;;;;49.80;24.10;;;5.30;99.90;;;;;;2104600;28;20032;-71
2021/10/13 05:16:12;;;;;;;48.92;25.20;;;5.20;99.90;;;;;;2104698;28;20035;-70
2021/10/13 05:17:12;;;;;;;60.10;25.42;;;5.20;99.90;;;;;;2105550;28;20073;-70
2021/10/13 05:18:13;;;;;;;38.40;21.95;;;5.20;99.90;;;;;;2105204;28;20738;-71
2021/10/13 05:19:13;;;;;;;41.72;23.20;;;5.20;99.90;;;;;;2104402;28;20047;-71
2021/10/13 05:20:14;;;;;;;46.15;24.02;;;5.20;99.90;;;;;;2105044;28;20494;-71
2021/10/13 05:21:15;;;;;;;39.42;21.95;;;5.20;99.90;;;;;;2105136;28;20070;-71
2021/10/13 05:22:16;;;;;;;37.90;21.58;;;5.20;99.90;;;;;;2104699;28;20066;-70
2021/10/13 05:23:16;;;;;;;37.15;21.35;;;5.10;99.90;;;;;;2104660;28;20023;-71
2021/10/13 05:24:17;;;;;;;36.70;21.10;;;5.10;99.90;;;;;;2104546;28;20024;-71
2021/10/13 05:25:17;;;;;;;43.47;23.10;;;5.10;99.90;;;;;;2104544;28;20016;-70
2021/10/13 05:26:18;;;;;;;34.40;20.48;;;5.10;99.90;;;;;;2105892;28;20032;-71
2021/10/13 05:27:19;;;;;;;50.13;24.83;;;5.10;99.90;;;;;;2104776;28;20051;-72
2021/10/13 05:28:20;;;;;;;41.97;23.30;;;5.10;99.90;;;;;;2097970;28;20040;-71